Dover, Ohio
Current Conditions -  °F | °C
As of 8:53 AM on Wednesday 22 Oct 2014 (Local Time) from KPHD Reporting Station
Overcast Overcast  
Wind Chill: 43°   Ceiling: 1400
Heat Index: 48°   Visibility: 10mi
Dew Point: 44°   Wind: 10mph
Humidity: 86%   Direction: 360°N
Pressure: 30.2"   Gusts: NA
Location:  40.52°N, 81.47°W
Report Text: KPHD 221253Z AUTO 36009KT 10SM OVC014 09/07 A3020 RMK AO2 CIG 009V020 SLP229 T00890067
Loading
Personal Weather Stations






























Interactive Weather Map
Tropical Storm Tracking
New forecast layout! Learn more

10-Day Weather Forecast

Advertisements
Track Severe Weather on mobile